createdAt,value
2022-09-15T00:01:39.936Z,17.65
2022-09-15T00:04:07.618Z,18.23
2022-09-15T00:06:37.574Z,18.55
2022-09-15T00:09:04.934Z,19.35
2022-09-15T00:11:34.579Z,17.80
2022-09-15T00:14:04.060Z,18.25
2022-09-15T00:16:32.239Z,17.88
2022-09-15T00:19:02.879Z,18.70
2022-09-15T00:21:35.172Z,18.20
2022-09-15T00:24:02.673Z,18.73
2022-09-15T00:26:30.853Z,17.65
2022-09-15T00:29:00.562Z,19.02
2022-09-15T00:31:29.189Z,17.90
2022-09-15T00:33:58.205Z,17.42
2022-09-15T00:36:27.171Z,17.90
2022-09-15T00:38:56.622Z,17.88
2022-09-15T00:41:24.079Z,19.15
2022-09-15T00:43:59.159Z,17.05
2022-09-15T00:46:41.068Z,18.52
2022-09-15T00:49:24.642Z,18.25
2022-09-15T00:52:09.821Z,18.38
2022-09-15T00:54:46.374Z,17.40
2022-09-15T00:57:29.936Z,17.83
2022-09-15T01:00:00.992Z,17.08
2022-09-15T01:02:32.674Z,17.27
2022-09-15T01:05:01.886Z,17.88
2022-09-15T01:07:40.249Z,17.67
2022-09-15T01:10:13.925Z,17.00
2022-09-15T01:12:41.830Z,18.25
2022-09-15T01:15:09.043Z,16.38
2022-09-15T01:18:05.409Z,17.80
2022-09-15T01:23:11.508Z,17.05
2022-09-15T01:26:08.748Z,17.27
2022-09-15T01:29:00.153Z,17.73
2022-09-15T01:32:04.863Z,17.67
2022-09-15T01:34:41.795Z,17.52
2022-09-15T01:37:17.279Z,17.85
2022-09-15T01:39:50.497Z,17.65
2022-09-15T01:42:22.291Z,16.58
2022-09-15T01:44:55.825Z,18.13
2022-09-15T01:47:27.380Z,18.75
2022-09-15T01:50:03.067Z,18.83
2022-09-15T01:52:32.026Z,17.13
2022-09-15T01:55:06.747Z,18.13
2022-09-15T01:57:33.555Z,18.03
2022-09-15T02:00:03.127Z,17.10
2022-09-15T02:02:42.571Z,17.85
2022-09-15T02:05:20.772Z,16.52
2022-09-15T02:07:57.230Z,17.70
2022-09-15T02:10:35.640Z,16.35
2022-09-15T02:13:24.640Z,17.10
2022-09-15T02:15:56.839Z,17.35
2022-09-15T02:18:35.744Z,17.27
2022-09-15T02:21:10.638Z,17.00
2022-09-15T02:23:45.468Z,18.50
2022-09-15T02:26:22.756Z,17.05
2022-09-15T02:28:54.077Z,17.58
2022-09-15T02:31:25.269Z,17.20
2022-09-15T02:33:58.963Z,16.45
2022-09-15T02:36:29.193Z,17.73
2022-09-15T02:39:09.222Z,18.38
2022-09-15T02:41:40.376Z,17.63
2022-09-15T02:44:09.507Z,17.35
2022-09-15T02:46:39.753Z,17.00
2022-09-15T02:49:08.951Z,17.02
2022-09-15T02:51:35.925Z,17.33
2022-09-15T02:54:04.929Z,17.50
2022-09-15T02:56:33.989Z,17.42
2022-09-15T02:59:02.975Z,17.63
2022-09-15T03:01:34.369Z,17.83
2022-09-15T03:04:08.273Z,18.02
2022-09-15T03:06:37.496Z,18.40
2022-09-15T03:09:10.286Z,17.75
2022-09-15T03:11:39.543Z,16.90
2022-09-15T03:14:08.176Z,17.88
2022-09-15T03:16:40.165Z,18.20
2022-09-15T03:19:06.939Z,16.85
2022-09-15T03:21:33.675Z,18.52
2022-09-15T03:24:02.796Z,17.63
2022-09-15T03:26:31.733Z,17.65
2022-09-15T03:28:58.424Z,17.88
2022-09-15T03:31:25.151Z,17.25
2022-09-15T03:33:54.785Z,16.73
2022-09-15T03:36:24.108Z,16.48
2022-09-15T03:38:51.261Z,16.38
2022-09-15T03:41:20.618Z,16.23
2022-09-15T03:43:49.461Z,16.17
2022-09-15T03:46:16.616Z,16.50
2022-09-15T03:48:47.443Z,16.98
2022-09-15T03:51:16.713Z,16.27
2022-09-15T03:53:43.402Z,15.88
2022-09-15T03:56:10.210Z,16.58
2022-09-15T03:58:39.555Z,16.48
2022-09-15T04:01:08.755Z,16.60
2022-09-15T04:03:42.053Z,16.13
2022-09-15T04:08:40.258Z,15.52
2022-09-15T04:11:08.560Z,15.70
2022-09-15T04:13:37.058Z,16.52
2022-09-15T04:16:06.795Z,16.60
2022-09-15T04:18:34.262Z,16.83
2022-09-15T04:21:05.645Z,15.98
2022-09-15T04:23:38.080Z,15.82
2022-09-15T04:26:07.844Z,16.13
2022-09-15T04:28:37.209Z,16.40
2022-09-15T04:31:07.066Z,15.90
2022-09-15T04:33:34.523Z,16.33
2022-09-15T04:36:03.629Z,16.10
2022-09-15T04:38:35.878Z,17.15
2022-09-15T04:41:03.274Z,16.55
2022-09-15T04:43:30.077Z,16.27
2022-09-15T04:46:16.960Z,17.40
2022-09-15T04:48:45.499Z,17.23
2022-09-15T04:51:15.782Z,16.35
2022-09-15T04:53:46.039Z,16.98
2022-09-15T04:56:17.666Z,16.55
2022-09-15T04:58:53.352Z,14.82
2022-09-15T05:01:26.060Z,16.80
2022-09-15T05:03:56.245Z,16.42
2022-09-15T05:06:27.907Z,16.00
2022-09-15T05:08:56.987Z,17.23
2022-09-15T05:11:24.758Z,15.63
2022-09-15T05:13:51.820Z,16.20
2022-09-15T05:16:27.280Z,16.65
2022-09-15T05:21:23.438Z,15.35
2022-09-15T05:23:52.040Z,15.45
2022-09-15T05:26:21.843Z,16.08
2022-09-15T05:28:48.787Z,18.25
2022-09-15T05:31:23.245Z,15.98
2022-09-15T05:33:52.904Z,16.45
2022-09-15T05:36:23.867Z,15.88
2022-09-15T05:38:54.126Z,15.75
2022-09-15T05:41:21.613Z,16.00
2022-09-15T05:43:49.711Z,15.02
2022-09-15T05:46:18.434Z,14.30
2022-09-15T05:48:45.861Z,15.23
2022-09-15T05:51:13.468Z,15.18
2022-09-15T05:53:40.232Z,14.52
2022-09-15T05:56:18.858Z,14.85
2022-09-15T05:58:49.278Z,15.80
2022-09-15T06:01:23.770Z,15.05
2022-09-15T06:03:54.509Z,15.75
2022-09-15T06:06:22.293Z,15.13
2022-09-15T06:08:56.824Z,15.18
2022-09-15T06:11:33.784Z,15.05
2022-09-15T06:14:03.212Z,14.70
2022-09-15T06:16:34.731Z,14.45
2022-09-15T06:19:03.971Z,15.00
2022-09-15T06:21:32.182Z,18.38
2022-09-15T06:24:04.441Z,16.55
2022-09-15T06:26:31.291Z,15.23
2022-09-15T06:29:00.484Z,15.65
2022-09-15T06:31:29.122Z,15.82
2022-09-15T06:33:57.737Z,15.00
2022-09-15T06:36:27.315Z,15.48
2022-09-15T06:38:59.234Z,13.57
2022-09-15T06:41:47.425Z,12.65
2022-09-15T06:44:21.299Z,14.05
2022-09-15T06:46:52.023Z,14.32
2022-09-15T06:49:22.080Z,14.13
2022-09-15T06:51:49.067Z,14.10
2022-09-15T06:54:18.421Z,14.90
2022-09-15T06:56:45.298Z,13.32
2022-09-15T06:59:13.087Z,12.73
2022-09-15T07:01:46.403Z,13.52
2022-09-15T07:04:13.240Z,14.57
2022-09-15T07:06:40.332Z,13.45
2022-09-15T07:09:07.073Z,14.02
2022-09-15T07:11:34.272Z,13.15
2022-09-15T07:14:01.091Z,13.73
2022-09-15T07:16:31.116Z,15.25
2022-09-15T07:19:03.866Z,14.48
2022-09-15T07:21:30.627Z,15.07
2022-09-15T07:24:08.137Z,14.32
2022-09-15T07:26:35.257Z,15.50
2022-09-15T07:29:05.533Z,14.52
2022-09-15T07:31:33.838Z,14.25
2022-09-15T07:34:03.557Z,14.35
2022-09-15T07:36:31.382Z,14.60
2022-09-15T07:39:01.004Z,14.18
2022-09-15T07:41:32.394Z,13.23
2022-09-15T07:44:01.909Z,15.30
2022-09-15T07:46:31.863Z,14.85
2022-09-15T07:49:03.619Z,15.80
2022-09-15T07:51:32.948Z,14.48
2022-09-15T07:54:00.399Z,15.57
2022-09-15T07:56:27.354Z,14.27
2022-09-15T07:58:54.174Z,14.85
2022-09-15T08:01:22.651Z,14.45
2022-09-15T08:03:52.756Z,14.52
2022-09-15T08:06:21.956Z,13.63
2022-09-15T08:08:56.317Z,13.60
2022-09-15T08:11:29.270Z,14.00
2022-09-15T08:13:58.438Z,12.55
2022-09-15T08:16:30.126Z,12.90
2022-09-15T08:18:59.087Z,12.48
2022-09-15T08:21:25.910Z,12.48
2022-09-15T08:23:57.645Z,12.95
2022-09-15T08:26:25.822Z,12.25
2022-09-15T08:28:52.886Z,13.80
2022-09-15T08:31:24.019Z,16.60
2022-09-15T08:33:56.137Z,11.68
2022-09-15T08:36:27.715Z,10.82
2022-09-15T08:38:57.426Z,11.43
2022-09-15T08:41:46.649Z,10.93
2022-09-15T08:44:51.707Z,11.35
2022-09-15T08:47:27.354Z,10.52
2022-09-15T08:50:27.282Z,11.60
2022-09-15T08:53:16.985Z,11.80
2022-09-15T08:55:53.258Z,10.75
2022-09-15T08:58:31.877Z,10.80
2022-09-15T09:01:24.677Z,10.90
2022-09-15T09:04:36.435Z,10.98
2022-09-15T09:07:24.286Z,10.02
2022-09-15T09:10:29.445Z,10.50
2022-09-15T09:12:59.278Z,10.75
2022-09-15T09:15:34.942Z,9.63
2022-09-15T09:18:22.706Z,10.47
2022-09-15T09:21:13.177Z,10.13
2022-09-15T09:24:07.582Z,9.50
2022-09-15T09:26:38.222Z,9.15
2022-09-15T09:29:30.272Z,8.07
2022-09-15T09:31:58.066Z,8.55
2022-09-15T09:34:45.614Z,8.40
2022-09-15T09:37:19.462Z,7.78
2022-09-15T09:39:47.464Z,6.47
2022-09-15T09:42:20.738Z,6.22
2022-09-15T09:44:51.014Z,6.32
2022-09-15T09:47:18.451Z,6.57
2022-09-15T09:49:49.806Z,6.22
2022-09-15T09:52:37.103Z,5.90
2022-09-15T09:55:23.648Z,7.32
2022-09-15T09:57:51.183Z,6.35
2022-09-15T10:00:33.056Z,5.97
2022-09-15T10:03:11.865Z,5.88
2022-09-15T10:05:41.861Z,5.63
2022-09-15T10:08:16.929Z,5.55
2022-09-15T10:10:57.151Z,5.63
2022-09-15T10:13:23.871Z,3.83
2022-09-15T10:15:58.522Z,3.30
2022-09-15T10:18:34.285Z,3.20
2022-09-15T10:21:03.337Z,3.20
2022-09-15T10:23:32.263Z,3.65
2022-09-15T10:26:17.803Z,4.28
2022-09-15T10:29:03.732Z,3.80
2022-09-15T10:31:33.181Z,3.80
2022-09-15T10:34:33.117Z,3.58
2022-09-15T10:37:17.641Z,3.88
2022-09-15T10:39:54.756Z,4.43
2022-09-15T10:42:48.929Z,4.40
2022-09-15T10:45:37.322Z,4.03
2022-09-15T10:48:24.279Z,3.63
2022-09-15T10:51:06.142Z,3.50
2022-09-15T10:53:57.500Z,3.55
2022-09-15T10:56:29.585Z,3.17
2022-09-15T10:59:02.991Z,3.20
2022-09-15T11:01:29.833Z,3.22
2022-09-15T11:04:23.610Z,3.00
2022-09-15T11:06:58.003Z,2.63
2022-09-15T11:09:29.325Z,2.97
2022-09-15T11:12:36.089Z,2.90
2022-09-15T11:17:49.269Z,2.55
2022-09-15T11:20:46.561Z,2.75
2022-09-15T11:23:47.143Z,2.60
2022-09-15T11:26:31.035Z,2.70
2022-09-15T11:29:14.975Z,2.53
2022-09-15T11:31:51.128Z,3.75
2022-09-15T11:34:29.241Z,3.60
2022-09-15T11:37:19.558Z,3.20
2022-09-15T11:39:57.417Z,3.85
2022-09-15T11:42:29.160Z,3.10
2022-09-15T11:45:02.227Z,2.90
2022-09-15T11:47:38.666Z,2.35
2022-09-15T11:50:11.212Z,2.35
2022-09-15T11:53:09.576Z,2.40
2022-09-15T11:55:36.259Z,2.00
2022-09-15T11:58:23.729Z,2.40
2022-09-15T12:01:02.415Z,2.60
2022-09-15T12:03:44.020Z,2.60
2022-09-15T12:06:34.099Z,2.15
2022-09-15T12:09:03.982Z,2.42
2022-09-15T12:11:38.216Z,2.17
2022-09-15T12:14:06.310Z,2.08
2022-09-15T12:16:38.308Z,2.60
2022-09-15T12:19:35.912Z,1.90
2022-09-15T12:22:20.074Z,2.13
2022-09-15T12:24:50.806Z,2.33
2022-09-15T12:27:19.457Z,1.55
2022-09-15T12:29:54.300Z,1.83
2022-09-15T12:32:24.773Z,1.70
2022-09-15T12:35:18.147Z,1.60
2022-09-15T12:37:53.657Z,1.48
2022-09-15T12:40:37.058Z,1.67
2022-09-15T12:43:13.444Z,1.90
2022-09-15T12:45:43.172Z,1.63
2022-09-15T12:48:35.002Z,1.88
2022-09-15T12:51:09.394Z,1.60
2022-09-15T12:53:55.928Z,1.77
2022-09-15T12:56:30.704Z,1.60
2022-09-15T12:59:06.627Z,1.30
2022-09-15T13:01:49.946Z,1.48
2022-09-15T13:04:48.238Z,1.55
2022-09-15T13:07:21.050Z,1.50
2022-09-15T13:09:59.410Z,1.85
2022-09-15T13:12:34.960Z,1.40
2022-09-15T13:15:05.076Z,1.65
2022-09-15T13:17:37.551Z,1.48
2022-09-15T13:20:15.189Z,1.70
2022-09-15T13:22:47.127Z,1.67
2022-09-15T13:25:16.254Z,1.88
2022-09-15T13:27:48.392Z,1.63
2022-09-15T13:30:21.351Z,1.73
2022-09-15T13:33:03.309Z,1.50
2022-09-15T13:36:02.563Z,1.90
2022-09-15T13:38:52.398Z,1.58
2022-09-15T13:41:40.135Z,2.10
2022-09-15T13:44:12.907Z,2.22
2022-09-15T13:46:51.450Z,2.22
2022-09-15T13:49:24.339Z,2.50
2022-09-15T13:51:59.656Z,1.90
2022-09-15T13:54:29.012Z,2.25
2022-09-15T13:57:01.056Z,1.90
2022-09-15T13:59:31.020Z,2.30
2022-09-15T14:01:59.709Z,2.30
2022-09-15T14:04:32.944Z,3.10
2022-09-15T14:07:01.816Z,2.60
2022-09-15T14:09:35.189Z,2.08
2022-09-15T14:12:10.457Z,2.38
2022-09-15T14:14:47.936Z,2.05
2022-09-15T14:17:22.636Z,2.67
2022-09-15T14:19:51.970Z,2.10
2022-09-15T14:22:26.073Z,1.95
2022-09-15T14:24:56.530Z,1.77
2022-09-15T14:27:45.030Z,1.50
2022-09-15T14:30:38.571Z,1.58
2022-09-15T14:33:05.452Z,1.60
2022-09-15T14:35:37.220Z,1.42
2022-09-15T14:38:06.532Z,1.75
2022-09-15T14:40:41.582Z,1.70
2022-09-15T14:43:36.101Z,1.40
2022-09-15T14:46:15.353Z,2.35
2022-09-15T14:48:44.003Z,1.67
2022-09-15T14:51:23.698Z,1.52
2022-09-15T14:53:57.789Z,2.00
2022-09-15T14:56:33.881Z,2.08
2022-09-15T14:59:12.570Z,2.30
2022-09-15T15:01:48.263Z,2.20
2022-09-15T15:04:24.746Z,2.13
2022-09-15T15:07:04.995Z,1.90
2022-09-15T15:09:47.227Z,2.00
2022-09-15T15:12:27.196Z,2.10
2022-09-15T15:14:55.525Z,1.60
2022-09-15T15:17:35.676Z,1.65
2022-09-15T15:20:24.551Z,2.10
2022-09-15T15:23:25.047Z,1.60
2022-09-15T15:25:52.775Z,1.73
2022-09-15T15:28:38.551Z,1.70
2022-09-15T15:31:21.857Z,1.88
2022-09-15T15:34:05.519Z,1.52
2022-09-15T15:36:35.464Z,1.10
2022-09-15T15:39:07.585Z,1.50
2022-09-15T15:41:41.588Z,1.33
2022-09-15T15:44:26.560Z,1.83
2022-09-15T15:46:56.271Z,1.38
2022-09-15T15:49:29.140Z,1.25
2022-09-15T15:51:57.417Z,1.33
2022-09-15T15:54:24.916Z,1.17
2022-09-15T15:56:52.168Z,1.50
2022-09-15T15:59:19.288Z,1.60
2022-09-15T16:01:55.661Z,1.20
2022-09-15T16:04:24.743Z,1.25
2022-09-15T16:06:52.317Z,1.27
2022-09-15T16:09:20.673Z,1.08
2022-09-15T16:11:51.789Z,1.30
2022-09-15T16:14:21.221Z,1.50
2022-09-15T16:16:47.914Z,1.30
2022-09-15T16:19:15.084Z,1.17
2022-09-15T16:21:42.600Z,1.45
2022-09-15T16:24:14.657Z,1.13
2022-09-15T16:26:42.715Z,1.48
2022-09-15T16:29:09.592Z,1.23
2022-09-15T16:31:36.435Z,1.50
2022-09-15T16:34:03.865Z,1.58
2022-09-15T16:36:36.224Z,1.40
2022-09-15T16:39:03.778Z,1.50
2022-09-15T16:41:38.475Z,1.30
2022-09-15T16:44:11.869Z,1.60
2022-09-15T16:46:38.845Z,1.40
2022-09-15T16:49:05.622Z,1.90
2022-09-15T16:51:32.475Z,1.30
2022-09-15T16:54:01.758Z,1.35
2022-09-15T16:56:28.829Z,1.50
2022-09-15T16:59:00.100Z,1.38
2022-09-15T17:01:27.389Z,1.30
2022-09-15T17:03:55.400Z,1.40
2022-09-15T17:06:22.189Z,1.30
2022-09-15T17:08:49.460Z,1.70
2022-09-15T17:11:18.656Z,1.63
2022-09-15T17:13:50.630Z,1.80
2022-09-15T17:16:19.773Z,1.45
2022-09-15T17:18:46.907Z,1.48
2022-09-15T17:21:16.424Z,1.58
2022-09-15T17:23:49.632Z,1.48
2022-09-15T17:26:27.597Z,1.45
2022-09-15T17:28:58.105Z,1.70
2022-09-15T17:31:25.200Z,1.63
2022-09-15T17:33:52.356Z,1.33
2022-09-15T17:36:19.529Z,1.60
2022-09-15T17:38:48.685Z,1.75
2022-09-15T17:41:21.394Z,1.35
2022-09-15T17:43:48.511Z,2.42
2022-09-15T17:46:16.355Z,2.35
2022-09-15T17:48:45.627Z,2.70
2022-09-15T17:51:18.136Z,1.80
2022-09-15T17:53:48.052Z,2.70
2022-09-15T17:56:18.192Z,2.67
2022-09-15T17:58:48.042Z,2.38
2022-09-15T18:01:17.808Z,1.77
2022-09-15T18:03:50.027Z,1.73
2022-09-15T18:06:16.804Z,1.73
2022-09-15T18:08:46.336Z,2.13
2022-09-15T18:11:15.062Z,1.77
2022-09-15T18:13:41.865Z,2.20
2022-09-15T18:16:13.218Z,1.88
2022-09-15T18:18:41.088Z,1.90
2022-09-15T18:21:10.303Z,1.90
2022-09-15T18:23:42.266Z,1.70
2022-09-15T18:26:09.098Z,2.20
2022-09-15T18:28:40.581Z,1.70
2022-09-15T18:31:17.103Z,1.85
2022-09-15T18:33:43.831Z,1.70
2022-09-15T18:36:10.894Z,1.58
2022-09-15T18:38:37.630Z,1.85
2022-09-15T18:41:12.024Z,1.55
2022-09-15T18:43:38.821Z,1.73
2022-09-15T18:46:05.665Z,1.63
2022-09-15T18:48:34.624Z,2.03
2022-09-15T18:51:01.414Z,1.60
2022-09-15T18:53:28.130Z,2.10
2022-09-15T18:55:54.921Z,2.05
2022-09-15T18:58:24.094Z,1.95
2022-09-15T19:00:51.050Z,2.25
2022-09-15T19:03:17.748Z,2.15
2022-09-15T19:05:45.762Z,2.25
2022-09-15T19:08:12.753Z,1.90
2022-09-15T19:10:42.186Z,2.10
2022-09-15T19:13:12.153Z,2.42
2022-09-15T19:15:43.778Z,2.20
2022-09-15T19:18:12.736Z,2.15
2022-09-15T19:20:41.847Z,1.88
2022-09-15T19:23:13.183Z,1.70
2022-09-15T19:25:42.982Z,2.10
2022-09-15T19:28:11.983Z,1.98
2022-09-15T19:30:39.072Z,2.90
2022-09-15T19:33:08.080Z,2.25
2022-09-15T19:35:34.750Z,1.98
2022-09-15T19:38:03.714Z,1.88
2022-09-15T19:40:30.973Z,1.50
2022-09-15T19:42:59.926Z,1.33
2022-09-15T19:45:29.786Z,3.03
2022-09-15T19:47:56.444Z,3.22
2022-09-15T19:50:23.345Z,2.50
2022-09-15T19:52:54.242Z,1.60
2022-09-15T19:55:23.402Z,2.92
2022-09-15T19:57:50.261Z,1.98
2022-09-15T20:00:21.989Z,1.70
2022-09-15T20:02:51.152Z,1.95
2022-09-15T20:05:20.276Z,1.63
2022-09-15T20:07:49.692Z,1.80
2022-09-15T20:10:16.702Z,1.50
2022-09-15T20:12:43.518Z,1.77
2022-09-15T20:15:10.781Z,2.80
2022-09-15T20:17:41.645Z,1.98
2022-09-15T20:20:10.376Z,1.90
2022-09-15T20:22:39.588Z,1.95
2022-09-15T20:25:06.479Z,1.67
2022-09-15T20:27:38.214Z,1.73
2022-09-15T20:30:06.157Z,1.90
2022-09-15T20:32:37.594Z,1.70
2022-09-15T20:35:04.528Z,1.75
2022-09-15T20:37:36.655Z,1.88
2022-09-15T20:40:09.477Z,1.80
2022-09-15T20:42:36.783Z,1.88
2022-09-15T20:45:11.373Z,2.17
2022-09-15T20:47:40.221Z,1.60
2022-09-15T20:50:09.542Z,1.55
2022-09-15T20:52:38.595Z,1.50
2022-09-15T20:55:08.901Z,1.60
2022-09-15T20:57:35.812Z,1.40
2022-09-15T21:00:07.183Z,1.83
2022-09-15T21:02:33.865Z,1.80
2022-09-15T21:05:00.685Z,1.50
2022-09-15T21:07:27.407Z,1.45
2022-09-15T21:09:57.260Z,1.90
2022-09-15T21:12:24.016Z,1.60
2022-09-15T21:14:51.668Z,1.70
2022-09-15T21:17:20.695Z,1.20
2022-09-15T21:19:54.521Z,1.75
2022-09-15T21:22:25.912Z,1.95
2022-09-15T21:24:52.576Z,1.50
2022-09-15T21:27:28.802Z,1.25
2022-09-15T21:29:58.054Z,1.50
2022-09-15T21:32:24.710Z,2.03
2022-09-15T21:34:55.858Z,1.55
2022-09-15T21:37:26.805Z,2.80
2022-09-15T21:39:53.619Z,2.13
2022-09-15T21:42:22.799Z,1.40
2022-09-15T21:44:49.554Z,1.48
2022-09-15T21:47:19.013Z,1.60
2022-09-15T21:49:45.655Z,1.50
2022-09-15T21:52:12.302Z,1.50
2022-09-15T21:54:39.233Z,1.80
2022-09-15T21:57:05.966Z,1.48
2022-09-15T21:59:32.656Z,1.60
2022-09-15T22:01:59.379Z,1.58
2022-09-15T22:04:28.208Z,1.65
2022-09-15T22:06:57.050Z,1.83
2022-09-15T22:09:26.283Z,1.77
2022-09-15T22:11:53.416Z,1.77
2022-09-15T22:14:21.345Z,1.30
2022-09-15T22:16:48.197Z,1.85
2022-09-15T22:19:17.352Z,1.38
2022-09-15T22:21:44.336Z,1.80
2022-09-15T22:24:17.954Z,1.80
2022-09-15T22:26:47.361Z,2.03
2022-09-15T22:29:18.893Z,1.33
2022-09-15T22:31:45.596Z,1.88
2022-09-15T22:34:12.284Z,1.65
2022-09-15T22:36:39.178Z,1.83
2022-09-15T22:39:08.215Z,2.03
2022-09-15T22:41:40.108Z,1.40
2022-09-15T22:44:18.579Z,1.65
2022-09-15T22:46:54.198Z,1.60
2022-09-15T22:51:52.511Z,1.98
2022-09-15T22:54:19.171Z,1.50
2022-09-15T22:56:48.774Z,1.70
2022-09-15T22:59:16.934Z,2.15
2022-09-15T23:01:46.169Z,1.55
2022-09-15T23:04:12.881Z,1.30
2022-09-15T23:06:39.518Z,1.90
2022-09-15T23:09:12.688Z,1.90
2022-09-15T23:11:40.132Z,1.52
2022-09-15T23:14:12.050Z,1.52
2022-09-15T23:16:41.590Z,1.80
2022-09-15T23:19:11.062Z,1.52
2022-09-15T23:21:37.886Z,1.63
2022-09-15T23:24:04.848Z,1.63
2022-09-15T23:26:33.836Z,1.70
2022-09-15T23:29:03.085Z,1.77
2022-09-15T23:31:29.889Z,1.55
2022-09-15T23:33:56.745Z,1.70
2022-09-15T23:36:23.445Z,1.52
2022-09-15T23:38:50.359Z,1.38
2022-09-15T23:41:18.166Z,1.50
2022-09-15T23:43:45.267Z,2.00
2022-09-15T23:46:14.394Z,1.90
2022-09-15T23:48:43.413Z,1.90
2022-09-15T23:51:12.380Z,1.30
2022-09-15T23:53:41.773Z,1.70
2022-09-15T23:56:11.204Z,1.48
2022-09-15T23:58:42.552Z,1.50
